N805AB KVNY-

Flight info

Callsign N805AB
Flight time N/A
Altitude VFR/055
Route VFR NORTHEAST
Aircraft P180/L-DOV/C

Departure

Time 2026-05-04 00:55
Airport Van Nuys Airport (KVNY)

Arrival

Time N/A
Airport -
Time Latitude Longitude Altitude Speed Heading
2026-05-04 00:47 34.21124 -118.48730 784 ft 0 kts 49°
2026-05-04 00:49 34.21125 -118.48729 784 ft 0 kts 35°
2026-05-04 00:50 34.21128 -118.48729 784 ft 0 kts
2026-05-04 00:51 34.21167 -118.48775 786 ft 15 kts 291°
2026-05-04 00:51 34.21244 -118.48861 786 ft 18 kts 354°
2026-05-04 00:51 34.21374 -118.48873 789 ft 19 kts 355°
2026-05-04 00:51 34.21513 -118.48886 792 ft 21 kts 354°
2026-05-04 00:52 34.21666 -118.48922 794 ft 24 kts 349°
2026-05-04 00:52 34.21826 -118.48946 802 ft 14 kts 356°
2026-05-04 00:52 34.21845 -118.48947 803 ft 2 kts 355°
2026-05-04 00:52 34.21855 -118.48948 804 ft 1 kts 355°
2026-05-04 00:53 34.21863 -118.48950 804 ft 2 kts 344°
2026-05-04 00:53 34.21867 -118.49000 804 ft 4 kts 175°
2026-05-04 00:53 34.21864 -118.48999 804 ft 0 kts 175°
2026-05-04 00:54 34.21689 -118.48983 794 ft 73 kts 175°
2026-05-04 00:54 34.20920 -118.48913 892 ft 133 kts 173°
2026-05-04 00:55 34.19877 -118.48810 1085 ft 169 kts 173°
2026-05-04 00:55 34.18659 -118.48564 1332 ft 190 kts 160°
2026-05-04 00:55 34.17634 -118.47525 1628 ft 206 kts 122°
2026-05-04 00:55 34.17335 -118.45804 1998 ft 216 kts 89°
2026-05-04 00:56 34.17801 -118.44085 2463 ft 223 kts 62°
2026-05-04 00:56 34.18633 -118.42454 2725 ft 233 kts 59°
2026-05-04 00:56 34.19560 -118.40802 2888 ft 242 kts 56°
2026-05-04 00:56 34.20534 -118.39138 3240 ft 242 kts 56°
2026-05-04 00:57 34.21521 -118.37488 3567 ft 243 kts 55°
2026-05-04 00:57 34.22536 -118.35839 3786 ft 246 kts 54°
2026-05-04 00:57 34.23576 -118.34186 3916 ft 249 kts 53°
2026-05-04 00:57 34.24614 -118.32604 4602 ft 234 kts 53°
2026-05-04 00:58 34.25647 -118.31082 5113 ft 241 kts 52°
2026-05-04 00:58 34.26839 -118.29624 5499 ft 254 kts 40°
2026-05-04 00:58 34.28404 -118.28555 5855 ft 265 kts 20°
2026-05-04 00:58 34.30256 -118.28130 6042 ft 277 kts
2026-05-04 00:59 34.32147 -118.27860 6605 ft 263 kts
2026-05-04 00:59 34.33914 -118.27595 7245 ft 250 kts
2026-05-04 00:59 34.35631 -118.27851 7544 ft 253 kts 338°
2026-05-04 00:59 34.37188 -118.28857 7658 ft 258 kts 320°
2026-05-04 01:00 34.38510 -118.30365 7669 ft 265 kts 308°
2026-05-04 01:00 34.39753 -118.31989 8092 ft 253 kts 309°
2026-05-04 01:00 34.41283 -118.33009 8379 ft 258 kts 340°
2026-05-04 01:00 34.42683 -118.34294 8325 ft 258 kts 300°
2026-05-04 01:01 34.43312 -118.36247 8837 ft 221 kts 274°
2026-05-04 01:01 34.43256 -118.37632 10654 ft 153 kts 257°
2026-05-04 01:01 34.42962 -118.38938 10502 ft 168 kts 242°
2026-05-04 01:01 34.42386 -118.40230 9936 ft 183 kts 239°
2026-05-04 01:02 34.41749 -118.41641 9217 ft 198 kts 240°
2026-05-04 01:02 34.41078 -118.43145 8506 ft 208 kts 239°
2026-05-04 01:02 34.40378 -118.44705 7797 ft 214 kts 239°
2026-05-04 01:02 34.39645 -118.46292 7026 ft 220 kts 239°
2026-05-04 01:03 34.38758 -118.47743 6318 ft 206 kts 219°
2026-05-04 01:03 34.37586 -118.48515 5559 ft 181 kts 204°
2026-05-04 01:03 34.36493 -118.49083 4920 ft 163 kts 202°
2026-05-04 01:03 34.35503 -118.49587 4475 ft 147 kts 202°
2026-05-04 01:04 34.34589 -118.49960 4132 ft 132 kts 195°
2026-05-04 01:04 34.33730 -118.50149 3975 ft 120 kts 188°
2026-05-04 01:04 34.32915 -118.50160 3817 ft 115 kts 180°
2026-05-04 01:04 34.32144 -118.50088 3655 ft 109 kts 179°
2026-05-04 01:05 34.31378 -118.49989 3517 ft 121 kts 177°
2026-05-04 01:05 34.30483 -118.49878 3454 ft 136 kts 178°
2026-05-04 01:05 34.29505 -118.49783 3291 ft 145 kts 180°
2026-05-04 01:05 34.28478 -118.49724 3040 ft 149 kts 180°
2026-05-04 01:06 34.27440 -118.49659 2698 ft 149 kts 179°
2026-05-04 01:06 34.26431 -118.49549 2449 ft 144 kts 178°
2026-05-04 01:06 34.25473 -118.49449 2063 ft 133 kts 177°
2026-05-04 01:06 34.24580 -118.49363 1737 ft 125 kts 176°
2026-05-04 01:07 34.23732 -118.49303 1443 ft 119 kts 175°
2026-05-04 01:07 34.22918 -118.49223 1198 ft 116 kts 174°
2026-05-04 01:07 34.22149 -118.49152 954 ft 106 kts 173°
2026-05-04 01:07 34.21468 -118.49085 801 ft 89 kts 172°
2026-05-04 01:08 34.20897 -118.49028 784 ft 99 kts 175°
2026-05-04 01:08 34.19916 -118.48938 1015 ft 167 kts 175°
2026-05-04 01:08 34.18686 -118.48840 1475 ft 181 kts 177°
2026-05-04 01:08 34.17447 -118.49054 2069 ft 180 kts 203°
2026-05-04 01:09 34.16549 -118.50093 2454 ft 186 kts 236°
2026-05-04 01:09 34.15805 -118.51426 2764 ft 199 kts 233°
2026-05-04 01:09 34.14958 -118.52780 3073 ft 197 kts 231°
2026-05-04 01:09 34.14110 -118.54041 3349 ft 193 kts 231°
2026-05-04 01:10 34.13216 -118.55251 3608 ft 187 kts 220°
2026-05-04 01:10 34.12006 -118.55529 3697 ft 187 kts 166°
2026-05-04 01:10 34.11074 -118.54498 3713 ft 192 kts 118°
2026-05-04 01:10 34.10700 -118.52921 3575 ft 197 kts 102°
2026-05-04 01:11 34.10491 -118.51319 3767 ft 190 kts 99°
2026-05-04 01:11 34.10329 -118.49737 3849 ft 190 kts 97°
2026-05-04 01:11 34.10189 -118.48159 3949 ft 189 kts 97°
2026-05-04 01:11 34.10053 -118.46572 3980 ft 191 kts 97°
2026-05-04 01:12 34.09929 -118.44973 4035 ft 191 kts 96°
2026-05-04 01:12 34.09832 -118.43390 4197 ft 186 kts 94°
2026-05-04 01:12 34.09791 -118.41857 4389 ft 183 kts 92°
2026-05-04 01:12 34.09820 -118.40319 4439 ft 185 kts 88°
2026-05-04 01:13 34.09888 -118.38776 4619 ft 182 kts 87°
2026-05-04 01:13 34.09963 -118.37267 4802 ft 180 kts 87°
2026-05-04 01:13 34.10036 -118.35745 4892 ft 184 kts 88°
2026-05-04 01:13 34.10100 -118.34204 4911 ft 188 kts 88°